SLOA4: Illinois River nr Siloam Springs AR

                                SHEF ID:       SLOA4     Illinois River South of Siloam S
STATION TYPE:

STAGE RIV-FLOW BAT-LOAD
ft cfs volt
Ccp-Rev Ccp-Rev Ccp-Rev
(America/Chicago)
04/30 00:00 5.78 1916 12.47
04/30 01:00 5.72 1874 12.44
04/30 02:00 5.64 1819 12.42
04/30 03:00 5.58 1778 12.39
04/30 04:00 5.51 1731 12.36
04/30 05:00 5.46 1697 12.34
04/30 06:00 5.40 1658 12.31
04/30 07:00 5.35 1625 12.27
04/30 08:00 5.30 1592 12.44
04/30 09:00 5.25 1558 13.38
04/30 10:00 5.21 1528 13.60
04/30 11:00 5.17 1498 13.36
04/30 12:00 5.14 1476 13.23
04/30 13:00 5.10 1447 13.13
04/30 14:00 5.05 1410 13.16
04/30 15:00 5.02 1389 13.13
04/30 16:00 4.98 1361 13.17
04/30 17:00 4.94 1333 12.99
04/30 18:00 4.91 1313 12.93
04/30 19:00 4.87 1286 12.85
04/30 20:00 4.85 1272 12.84
04/30 21:00 4.82 1252 12.65
04/30 22:00 4.79 1233 12.53
04/30 23:00 4.78 1226 12.48
Data processed at Fri 01May2026 04:18 GMT

NOTICE: If you are parsing this page

Please convert to using our Data API. Starting early 2026 we will be migrating to: https://water.usace.army.mil with modern pages rendered in JavaScript. When this migration completes you will no longer be able to scrape this page! CWMSDataAPI (CDA)

Timeseries IDs (TSIDs)

TSIDs used from left to right in the data table
SILO.Stage.Inst.1Hour.0.Ccp-Rev
SILO.Flow.Inst.1Hour.0.Ccp-Rev
SILO.Volt-Battery Load.Inst.1Hour.0.Ccp-Rev

                            

All information presented herein is the property of the government of the United States of America and may be revised or deleted at any time without prior notice. Dissemination of this information without the expressed written consent of the Public Affairs Office, Tulsa District U.S. Army Corps of Engineers is strictly prohibited. These data are gathered electronically and, as presented, have NOT undergone any form of quality control. These data are NOT guaranteed to be valid or correct.